Time;durP1;ratioP1;P1;durP2;ratioP2;P2;SDS_P1;SDS_P2;PMS_P1;PMS_P2;Temp;Humidity;BMP_temperature;BMP_pressure;BME280_temperature;BME280_humidity;BME280_pressure;Samples;Min_cycle;Max_cycle;Signal;HPM_P1;HPM_P2
2022/10/16 00:01:16;;;;;;;8.98;3.67;;;14.30;99.90;;;;;;5013771;28;20200;-73
2022/10/16 00:03:45;;;;;;;5.50;3.42;;;14.30;99.90;;;;;;5019575;28;20295;-75
2022/10/16 00:06:13;;;;;;;4.38;3.00;;;14.30;99.90;;;;;;5003862;28;20583;-75
2022/10/16 00:08:41;;;;;;;4.55;2.50;;;14.20;99.90;;;;;;5019358;28;20236;-74
2022/10/16 00:11:11;;;;;;;2.42;2.22;;;14.30;99.90;;;;;;5011386;28;20293;-75
2022/10/16 00:13:41;;;;;;;6.18;3.03;;;14.20;99.90;;;;;;5012592;28;20197;-76
2022/10/16 00:16:10;;;;;;;3.38;2.63;;;14.20;99.90;;;;;;5019398;28;20357;-72
2022/10/16 00:18:39;;;;;;;3.20;2.90;;;14.10;99.90;;;;;;5026182;28;20323;-76
2022/10/16 00:21:07;;;;;;;4.93;2.80;;;14.10;99.90;;;;;;5016726;28;20202;-73
2022/10/16 00:23:35;;;;;;;5.00;3.20;;;14.20;99.90;;;;;;5024027;28;20201;-76
2022/10/16 00:26:04;;;;;;;5.97;3.63;;;14.20;99.90;;;;;;5027289;28;20201;-76
2022/10/16 00:28:31;;;;;;;8.20;3.38;;;14.10;99.90;;;;;;5022521;28;20255;-77
2022/10/16 00:31:00;;;;;;;3.60;2.58;;;14.10;99.90;;;;;;5017262;28;20280;-75
2022/10/16 00:33:29;;;;;;;3.95;3.10;;;14.00;99.90;;;;;;5012125;28;20237;-75
2022/10/16 00:35:59;;;;;;;4.95;3.10;;;14.00;99.90;;;;;;5021597;28;20201;-74
2022/10/16 00:38:26;;;;;;;3.40;2.50;;;14.00;99.90;;;;;;5021462;28;20229;-74
2022/10/16 00:40:53;;;;;;;6.20;2.90;;;14.10;99.90;;;;;;5037131;28;20221;-76
2022/10/16 00:43:36;;;;;;;5.68;3.05;;;13.80;99.90;;;;;;5024299;28;20261;-75
2022/10/16 00:46:09;;;;;;;5.75;2.83;;;13.80;99.90;;;;;;5005085;28;20274;-76
2022/10/16 00:48:37;;;;;;;4.05;3.10;;;13.80;99.90;;;;;;5022328;28;20577;-74
2022/10/16 00:51:05;;;;;;;7.05;2.80;;;13.70;99.90;;;;;;5014924;28;20684;-74
2022/10/16 00:53:32;;;;;;;5.25;3.45;;;13.70;99.90;;;;;;5021824;28;20300;-73
2022/10/16 00:55:59;;;;;;;5.32;3.40;;;13.70;99.90;;;;;;5020436;28;20306;-75
2022/10/16 00:58:26;;;;;;;3.47;3.13;;;13.70;99.90;;;;;;5014124;28;20258;-75
2022/10/16 01:00:53;;;;;;;3.97;2.95;;;13.70;99.90;;;;;;5025569;28;20318;-74
2022/10/16 01:03:27;;;;;;;6.05;3.10;;;13.60;99.90;;;;;;5019667;28;20283;-73
2022/10/16 01:06:14;;;;;;;5.25;2.80;;;13.50;99.90;;;;;;5016663;28;20283;-76
2022/10/16 01:08:50;;;;;;;3.75;2.72;;;13.50;99.90;;;;;;5015022;28;20232;-74
2022/10/16 01:11:24;;;;;;;6.78;3.50;;;13.50;99.90;;;;;;5014902;28;20223;-74
2022/10/16 01:13:56;;;;;;;3.65;2.45;;;13.40;99.90;;;;;;5008115;28;20234;-75
2022/10/16 01:16:32;;;;;;;3.00;2.72;;;13.40;99.90;;;;;;5019502;28;20204;-73
2022/10/16 01:19:11;;;;;;;4.40;2.97;;;13.40;99.90;;;;;;5019563;28;20315;-75
2022/10/16 01:21:42;;;;;;;6.00;2.90;;;13.40;99.90;;;;;;5012775;28;20296;-75
2022/10/16 01:24:17;;;;;;;4.38;2.85;;;13.40;99.90;;;;;;5013398;28;20288;-73
2022/10/16 01:27:07;;;;;;;10.77;3.40;;;13.40;99.90;;;;;;5014722;28;20212;-73
2022/10/16 01:29:38;;;;;;;4.72;2.20;;;13.50;99.90;;;;;;5018175;28;20516;-75
2022/10/16 01:32:12;;;;;;;3.55;2.50;;;13.40;99.90;;;;;;5014285;28;20680;-73
2022/10/16 01:34:47;;;;;;;8.20;3.28;;;13.30;99.90;;;;;;5012716;28;20198;-76
2022/10/16 01:37:19;;;;;;;6.15;2.70;;;13.30;99.90;;;;;;5015195;28;20235;-75
2022/10/16 01:39:50;;;;;;;2.92;2.33;;;13.30;99.90;;;;;;5013371;28;20590;-76
2022/10/16 01:42:23;;;;;;;7.00;3.17;;;13.20;99.90;;;;;;5013887;28;20671;-73
2022/10/16 01:44:52;;;;;;;4.97;3.70;;;13.20;99.90;;;;;;5022662;28;20291;-73
2022/10/16 01:47:20;;;;;;;4.45;3.20;;;13.10;99.90;;;;;;5018533;28;20263;-74
2022/10/16 01:49:48;;;;;;;3.47;2.50;;;13.00;99.90;;;;;;5028935;28;20310;-75
2022/10/16 01:52:22;;;;;;;6.13;2.80;;;13.10;99.90;;;;;;5025869;28;20303;-76
2022/10/16 01:54:53;;;;;;;7.57;3.42;;;13.10;99.90;;;;;;5021093;28;20613;-75
2022/10/16 01:57:25;;;;;;;8.00;2.90;;;13.10;99.90;;;;;;5012173;28;20229;-74
2022/10/16 01:59:57;;;;;;;3.90;2.35;;;13.10;99.90;;;;;;5020852;28;20223;-75
2022/10/16 02:02:27;;;;;;;9.70;4.18;;;13.20;99.90;;;;;;5024182;28;20216;-72
2022/10/16 02:04:59;;;;;;;4.35;3.20;;;13.20;99.90;;;;;;5036279;28;20231;-71
2022/10/16 02:07:26;;;;;;;4.80;2.75;;;13.20;99.90;;;;;;5030306;28;20256;-72
2022/10/16 02:09:53;;;;;;;5.68;3.28;;;13.10;99.90;;;;;;5042285;28;20223;-73
2022/10/16 02:12:26;;;;;;;4.20;3.80;;;13.10;99.90;;;;;;5033268;28;20319;-74
2022/10/16 02:14:53;;;;;;;4.55;2.88;;;13.20;99.90;;;;;;5018678;28;20231;-73
2022/10/16 02:17:21;;;;;;;4.55;3.10;;;13.10;99.90;;;;;;5015141;28;20221;-73
2022/10/16 02:19:51;;;;;;;5.28;2.53;;;13.10;99.90;;;;;;5017577;28;20598;-74
2022/10/16 02:22:22;;;;;;;10.82;2.80;;;13.00;99.90;;;;;;5027563;28;20270;-75
2022/10/16 02:24:55;;;;;;;3.83;3.20;;;13.00;99.90;;;;;;5013293;28;20207;-74
2022/10/16 02:27:28;;;;;;;3.65;2.92;;;13.10;99.90;;;;;;5013585;28;20230;-74
2022/10/16 02:30:00;;;;;;;3.78;2.80;;;13.00;99.90;;;;;;5014810;28;20231;-73
2022/10/16 02:32:32;;;;;;;3.75;2.50;;;13.10;99.90;;;;;;5024073;28;20246;-75
2022/10/16 02:35:01;;;;;;;5.32;3.03;;;13.10;99.90;;;;;;5021452;28;20208;-75
2022/10/16 02:37:28;;;;;;;5.50;3.25;;;13.10;99.90;;;;;;5026516;28;20227;-75
2022/10/16 02:39:56;;;;;;;4.25;2.92;;;13.10;99.90;;;;;;5015770;28;20604;-75
2022/10/16 02:42:33;;;;;;;9.63;3.00;;;13.10;99.90;;;;;;5024917;28;20219;-73
2022/10/16 02:45:00;;;;;;;3.92;3.20;;;13.00;99.90;;;;;;5026150;28;20756;-76
2022/10/16 02:47:27;;;;;;;6.20;3.03;;;13.00;99.90;;;;;;5027873;28;20229;-73
2022/10/16 02:49:54;;;;;;;4.43;2.97;;;13.00;99.90;;;;;;5020365;28;20201;-73
2022/10/16 02:52:21;;;;;;;15.30;3.65;;;13.00;99.90;;;;;;5024409;28;20658;-74
2022/10/16 02:54:48;;;;;;;6.88;3.25;;;13.00;99.90;;;;;;5014013;28;20240;-75
2022/10/16 02:57:14;;;;;;;4.70;3.70;;;13.00;99.90;;;;;;5022510;28;20572;-77
2022/10/16 02:59:43;;;;;;;4.97;3.55;;;13.00;99.90;;;;;;5025736;28;20314;-74
2022/10/16 03:02:10;;;;;;;5.35;3.70;;;13.00;99.90;;;;;;5027661;28;20211;-75
2022/10/16 03:04:37;;;;;;;5.25;3.35;;;13.00;99.90;;;;;;5027141;28;20214;-75
2022/10/16 03:07:04;;;;;;;6.05;3.65;;;13.00;99.90;;;;;;5015969;28;20214;-74
2022/10/16 03:09:31;;;;;;;3.85;3.30;;;13.00;99.90;;;;;;5024728;28;20245;-76
2022/10/16 03:11:58;;;;;;;4.88;3.13;;;13.00;99.90;;;;;;5016673;28;20296;-75
2022/10/16 03:14:25;;;;;;;5.47;3.00;;;13.00;99.90;;;;;;5012349;28;20196;-75
2022/10/16 03:16:53;;;;;;;4.97;3.47;;;12.90;99.90;;;;;;5021105;28;20210;-76
2022/10/16 03:19:20;;;;;;;4.90;3.33;;;13.00;99.90;;;;;;5016285;28;20236;-73
2022/10/16 03:21:47;;;;;;;5.78;3.97;;;12.90;99.90;;;;;;5010110;28;20282;-72
2022/10/16 03:24:14;;;;;;;4.47;4.05;;;13.00;99.90;;;;;;5018453;28;20663;-76
2022/10/16 03:26:41;;;;;;;7.40;3.70;;;13.00;99.90;;;;;;5010735;28;20639;-75
2022/10/16 03:29:07;;;;;;;5.88;3.20;;;13.00;99.90;;;;;;5010526;28;20734;-76
2022/10/16 03:31:34;;;;;;;4.88;3.03;;;13.00;99.90;;;;;;5017602;28;20208;-75
2022/10/16 03:34:03;;;;;;;7.97;3.20;;;13.10;99.90;;;;;;5016461;28;20290;-76
2022/10/16 03:36:30;;;;;;;6.20;3.65;;;13.10;99.90;;;;;;5008262;28;20212;-76
2022/10/16 03:38:57;;;;;;;7.38;4.50;;;13.10;99.90;;;;;;5021741;28;20733;-74
2022/10/16 03:41:23;;;;;;;4.15;3.70;;;13.10;99.90;;;;;;5010982;28;20234;-74
2022/10/16 03:43:50;;;;;;;10.35;5.22;;;13.10;99.90;;;;;;5023128;28;20626;-75
2022/10/16 03:46:17;;;;;;;8.43;4.43;;;13.00;99.90;;;;;;5020931;28;20231;-76
2022/10/16 03:48:44;;;;;;;4.82;4.15;;;13.00;99.90;;;;;;5034959;28;20286;-73
2022/10/16 03:51:12;;;;;;;9.35;4.70;;;13.00;99.90;;;;;;5026943;28;20288;-73
2022/10/16 03:53:39;;;;;;;5.70;4.68;;;13.00;99.90;;;;;;5015912;28;20284;-73
2022/10/16 03:56:07;;;;;;;10.43;5.18;;;13.10;99.90;;;;;;5035049;28;20204;-76
2022/10/16 03:58:33;;;;;;;8.27;6.10;;;13.10;99.90;;;;;;5025104;28;20259;-75
2022/10/16 04:01:00;;;;;;;9.38;5.28;;;13.10;99.90;;;;;;5016615;28;20337;-74
2022/10/16 04:03:27;;;;;;;5.70;5.05;;;13.10;99.90;;;;;;5023155;28;20673;-75
2022/10/16 04:05:54;;;;;;;9.25;6.45;;;13.10;99.90;;;;;;5017614;28;20291;-74
2022/10/16 04:08:22;;;;;;;8.20;7.20;;;13.10;99.90;;;;;;5021225;28;20334;-72
2022/10/16 04:10:49;;;;;;;9.57;6.70;;;13.20;99.90;;;;;;5015553;28;20230;-75
2022/10/16 04:13:16;;;;;;;9.13;6.72;;;13.10;99.90;;;;;;5024587;28;20214;-74
2022/10/16 04:15:43;;;;;;;9.70;6.72;;;13.10;99.90;;;;;;5020923;28;20218;-74
2022/10/16 04:18:10;;;;;;;11.38;7.43;;;13.20;99.90;;;;;;5023590;28;20234;-75
2022/10/16 04:20:37;;;;;;;9.18;7.05;;;13.10;99.90;;;;;;5017293;28;20218;-74
2022/10/16 04:23:04;;;;;;;12.95;8.00;;;13.10;99.90;;;;;;5013431;28;20206;-74
2022/10/16 04:25:33;;;;;;;10.00;6.60;;;13.10;99.90;;;;;;5020800;28;20262;-75
2022/10/16 04:28:00;;;;;;;7.50;6.65;;;13.10;99.90;;;;;;5018575;28;20311;-73
2022/10/16 04:30:27;;;;;;;11.70;8.13;;;13.10;99.90;;;;;;5025870;28;20204;-75
2022/10/16 04:32:54;;;;;;;10.50;8.50;;;13.20;99.90;;;;;;5018316;28;20222;-75
2022/10/16 04:35:22;;;;;;;11.05;7.90;;;13.10;99.90;;;;;;5022168;28;20228;-72
2022/10/16 04:37:50;;;;;;;13.68;9.05;;;13.20;99.90;;;;;;5017003;28;20593;-75
2022/10/16 04:40:17;;;;;;;13.23;9.70;;;13.20;99.90;;;;;;5022554;28;20575;-75
2022/10/16 04:42:45;;;;;;;12.93;8.27;;;13.20;99.90;;;;;;5022701;28;20288;-73
2022/10/16 04:45:12;;;;;;;12.35;9.48;;;13.20;99.90;;;;;;5027329;28;20242;-73
2022/10/16 04:47:39;;;;;;;14.20;7.97;;;13.10;99.90;;;;;;5013706;28;20225;-74
2022/10/16 04:50:07;;;;;;;12.32;7.78;;;13.10;99.90;;;;;;5016989;28;20581;-75
2022/10/16 04:52:34;;;;;;;13.48;10.07;;;13.10;99.90;;;;;;5023082;28;20233;-73
2022/10/16 04:55:02;;;;;;;12.90;10.02;;;13.20;99.90;;;;;;5019563;28;20291;-73
2022/10/16 04:57:30;;;;;;;9.70;8.75;;;13.10;99.90;;;;;;5017195;28;20232;-75
2022/10/16 04:59:58;;;;;;;13.77;9.32;;;13.20;99.90;;;;;;5018749;28;20207;-73
2022/10/16 05:02:25;;;;;;;12.82;10.00;;;13.20;99.90;;;;;;5016361;28;20517;-71
2022/10/16 05:04:52;;;;;;;20.58;10.65;;;13.20;99.90;;;;;;5014095;28;20299;-76
2022/10/16 05:07:19;;;;;;;15.82;11.43;;;13.20;99.90;;;;;;5007156;28;20332;-74
2022/10/16 05:09:47;;;;;;;13.48;10.40;;;13.20;99.90;;;;;;5020758;28;20201;-75
2022/10/16 05:12:14;;;;;;;19.35;11.88;;;13.30;99.90;;;;;;5012010;28;20216;-75
2022/10/16 05:14:41;;;;;;;12.80;11.27;;;13.20;99.90;;;;;;5020565;28;20201;-75
2022/10/16 05:17:09;;;;;;;14.68;11.80;;;13.20;99.90;;;;;;5018176;28;20201;-76
2022/10/16 05:19:36;;;;;;;21.75;11.13;;;13.20;99.90;;;;;;5016775;28;20306;-73
2022/10/16 05:22:03;;;;;;;14.88;11.57;;;13.20;99.90;;;;;;5029023;28;20211;-76
2022/10/16 05:24:30;;;;;;;21.45;11.68;;;13.30;99.90;;;;;;5020568;28;20202;-75
2022/10/16 05:26:57;;;;;;;12.68;10.15;;;13.40;99.90;;;;;;5019754;28;20253;-75
2022/10/16 05:29:24;;;;;;;15.52;12.25;;;13.40;99.90;;;;;;5025191;28;20295;-76
2022/10/16 05:31:52;;;;;;;16.25;12.02;;;13.40;99.90;;;;;;5018703;28;20244;-74
2022/10/16 05:34:21;;;;;;;13.73;12.20;;;13.40;99.90;;;;;;5034608;28;20204;-74
2022/10/16 05:36:48;;;;;;;14.05;11.35;;;13.50;99.90;;;;;;5027668;28;20239;-73
2022/10/16 05:39:16;;;;;;;17.67;13.75;;;13.50;99.90;;;;;;5038082;28;20232;-74
2022/10/16 05:41:43;;;;;;;23.30;14.02;;;13.50;99.90;;;;;;5034903;28;20287;-73
2022/10/16 05:44:10;;;;;;;15.98;11.88;;;13.50;99.90;;;;;;5017944;28;20580;-74
2022/10/16 05:46:37;;;;;;;14.27;11.82;;;13.40;99.90;;;;;;5014716;28;20201;-76
2022/10/16 05:49:04;;;;;;;13.55;10.23;;;13.50;99.90;;;;;;5020034;28;20319;-74
2022/10/16 05:51:33;;;;;;;15.52;11.38;;;13.50;99.90;;;;;;5019470;28;20197;-76
2022/10/16 05:53:59;;;;;;;18.55;12.93;;;13.50;99.90;;;;;;5024844;28;20576;-75
2022/10/16 05:56:26;;;;;;;14.77;12.40;;;13.50;99.90;;;;;;5011389;28;20560;-73
2022/10/16 05:58:53;;;;;;;20.85;13.35;;;13.50;99.90;;;;;;5026721;28;20228;-74
2022/10/16 06:01:23;;;;;;;16.40;12.80;;;13.60;99.90;;;;;;5024196;28;20270;-75
2022/10/16 06:03:51;;;;;;;18.73;12.45;;;13.70;99.90;;;;;;5024257;28;20200;-74
2022/10/16 06:06:19;;;;;;;12.57;10.95;;;13.60;99.90;;;;;;5028905;28;20204;-76
2022/10/16 06:08:49;;;;;;;17.70;12.65;;;13.70;99.90;;;;;;5024607;28;20220;-75
2022/10/16 06:11:18;;;;;;;16.80;12.23;;;13.70;99.90;;;;;;5030006;28;20715;-76
2022/10/16 06:13:45;;;;;;;24.17;13.43;;;13.70;99.90;;;;;;5023520;28;20288;-75
2022/10/16 06:16:13;;;;;;;17.70;11.60;;;13.60;99.90;;;;;;5016543;28;20235;-75
2022/10/16 06:18:40;;;;;;;15.60;10.98;;;13.60;99.90;;;;;;5023293;28;20312;-73
2022/10/16 06:21:11;;;;;;;14.40;12.02;;;13.70;99.90;;;;;;5015547;28;20263;-74
2022/10/16 06:23:38;;;;;;;19.98;11.35;;;13.70;99.90;;;;;;5027381;28;20651;-75
2022/10/16 06:26:08;;;;;;;13.95;10.75;;;13.80;99.90;;;;;;5022272;28;20307;-76
2022/10/16 06:28:35;;;;;;;18.95;12.02;;;13.80;99.90;;;;;;5027830;28;20238;-73
2022/10/16 06:31:02;;;;;;;16.95;11.30;;;13.80;99.90;;;;;;5023419;28;20682;-74
2022/10/16 06:33:29;;;;;;;15.98;11.00;;;13.90;99.90;;;;;;5029853;28;20231;-73
2022/10/16 06:36:01;;;;;;;11.77;10.65;;;13.90;99.90;;;;;;5026276;28;20280;-75
2022/10/16 06:38:28;;;;;;;12.35;10.00;;;14.00;99.90;;;;;;5009083;28;20235;-73
2022/10/16 06:40:55;;;;;;;12.95;11.35;;;14.00;99.90;;;;;;5026660;28;20260;-75
2022/10/16 06:43:24;;;;;;;13.13;10.65;;;14.00;99.90;;;;;;5014601;28;20244;-74
2022/10/16 06:45:53;;;;;;;13.98;11.25;;;14.10;99.90;;;;;;5004757;28;20283;-73
2022/10/16 06:48:21;;;;;;;13.27;9.52;;;14.00;99.90;;;;;;5018992;28;20774;-74
2022/10/16 06:51:00;;;;;;;10.32;9.18;;;14.20;99.90;;;;;;5003431;28;20276;-73
2022/10/16 06:53:28;;;;;;;12.55;9.80;;;14.40;99.90;;;;;;5024519;28;20208;-76
2022/10/16 06:55:55;;;;;;;11.57;9.35;;;14.40;99.90;;;;;;5018908;28;20303;-76
2022/10/16 06:58:24;;;;;;;9.55;8.55;;;14.40;99.90;;;;;;5022855;28;20260;-75
2022/10/16 07:00:57;;;;;;;10.30;7.10;;;14.80;99.90;;;;;;5018325;28;20239;-76
2022/10/16 07:03:24;;;;;;;11.67;8.60;;;15.60;99.90;;;;;;5018226;28;20448;-76
2022/10/16 07:05:51;;;;;;;8.35;7.47;;;15.90;99.90;;;;;;5028266;28;20486;-76
2022/10/16 07:08:18;;;;;;;8.33;7.53;;;16.20;99.90;;;;;;5023234;28;20326;-75
2022/10/16 07:10:45;;;;;;;7.43;6.63;;;16.70;99.90;;;;;;5027873;28;20572;-75
2022/10/16 07:13:13;;;;;;;9.87;7.03;;;17.10;99.90;;;;;;5024797;28;20455;-74
2022/10/16 07:15:41;;;;;;;8.63;6.90;;;17.30;99.90;;;;;;5018929;28;20540;-75
2022/10/16 07:18:09;;;;;;;12.27;6.20;;;17.30;99.90;;;;;;5036378;28;20459;-73
2022/10/16 07:20:37;;;;;;;11.13;9.40;;;17.60;99.90;;;;;;5022436;28;20445;-72
2022/10/16 07:23:04;;;;;;;10.37;6.60;;;17.90;99.90;;;;;;5024149;28;20526;-73
2022/10/16 07:25:30;;;;;;;7.33;6.53;;;18.10;99.90;;;;;;5026493;28;20445;-73
2022/10/16 07:27:57;;;;;;;6.23;5.63;;;18.10;99.90;;;;;;5015379;28;20478;-75
2022/10/16 07:30:24;;;;;;;9.80;7.03;;;18.00;99.90;;;;;;5020319;28;20549;-74
2022/10/16 07:32:52;;;;;;;9.27;5.83;;;18.00;99.90;;;;;;5020788;28;20941;-74
2022/10/16 07:35:19;;;;;;;7.23;5.70;;;18.30;99.90;;;;;;5014927;28;20448;-76
2022/10/16 07:37:46;;;;;;;8.53;6.20;;;18.40;99.90;;;;;;5021690;28;20547;-76
2022/10/16 07:40:14;;;;;;;6.97;6.27;;;18.20;99.90;;;;;;5015052;28;20475;-74
2022/10/16 07:42:40;;;;;;;9.80;5.87;;;17.80;99.90;;;;;;5019491;28;21065;-76
2022/10/16 07:45:08;;;;;;;8.50;6.23;;;17.40;99.90;;;;;;5020598;28;20474;-74
2022/10/16 07:47:35;;;;;;;9.73;6.30;;;17.20;99.90;;;;;;5020183;28;20558;-74
2022/10/16 07:50:03;;;;;;;7.33;5.20;;;17.00;99.90;;;;;;5017907;28;20452;-75
2022/10/16 07:52:30;;;;;;;5.70;5.13;;;16.90;99.90;;;;;;5029373;28;20937;-74
2022/10/16 07:54:57;;;;;;;8.73;4.80;;;16.90;99.90;;;;;;5018763;28;20468;-74
2022/10/16 07:57:24;;;;;;;6.60;5.90;;;16.50;99.90;;;;;;5022390;28;20557;-76
2022/10/16 07:59:52;;;;;;;5.90;5.30;;;15.90;99.90;;;;;;5021181;28;20541;-76
2022/10/16 08:02:25;;;;;;;6.20;5.60;;;15.90;99.90;;;;;;5110856;27;20352;-73
2022/10/16 08:04:52;;;;;;;6.63;5.87;;;15.90;99.90;;;;;;5069546;28;20264;-74
2022/10/16 08:07:19;;;;;;;5.27;4.40;;;16.10;99.90;;;;;;5072216;28;20563;-76
2022/10/16 08:09:50;;;;;;;6.03;4.60;;;16.50;99.90;;;;;;5083665;28;20441;-75
2022/10/16 08:12:17;;;;;;;5.60;3.70;;;17.20;99.90;;;;;;5077022;28;20943;-75
2022/10/16 08:14:43;;;;;;;8.80;4.47;;;18.30;99.90;;;;;;5069278;28;20537;-75
2022/10/16 08:17:10;;;;;;;4.53;3.47;;;19.00;99.90;;;;;;5069121;28;20514;-75
2022/10/16 08:19:38;;;;;;;6.70;3.40;;;19.30;99.90;;;;;;5069527;28;20529;-76
2022/10/16 08:22:05;;;;;;;4.13;2.87;;;19.40;99.90;;;;;;5068047;28;20572;-76
2022/10/16 08:24:34;;;;;;;6.60;3.67;;;19.50;99.90;;;;;;5069401;28;20536;-74
2022/10/16 08:27:01;;;;;;;4.23;2.83;;;19.50;99.90;;;;;;5068308;28;20452;-77
2022/10/16 08:29:28;;;;;;;4.20;2.67;;;20.10;99.90;;;;;;5068188;28;20464;-75
2022/10/16 08:31:55;;;;;;;3.40;3.00;;;19.80;99.90;;;;;;5069438;28;20524;-76
2022/10/16 08:34:23;;;;;;;4.47;2.73;;;19.70;99.90;;;;;;5072141;28;20555;-76
2022/10/16 08:36:53;;;;;;;3.70;2.70;;;20.40;99.90;;;;;;5069113;28;20916;-77
2022/10/16 08:39:20;;;;;;;6.50;2.83;;;20.20;99.90;;;;;;5069258;28;20497;-75
2022/10/16 08:42:22;;;;;;;3.43;2.40;;;21.10;99.90;;;;;;5072669;28;20469;-74
2022/10/16 08:45:14;;;;;;;4.50;2.70;;;21.40;99.90;;;;;;5063434;28;20552;-74
2022/10/16 08:47:49;;;;;;;4.90;2.60;;;22.10;99.90;;;;;;5066237;28;20539;-74
2022/10/16 08:50:23;;;;;;;2.10;1.90;;;22.80;99.90;;;;;;5069352;28;20854;-77
2022/10/16 08:52:52;;;;;;;3.80;2.70;;;23.00;99.40;;;;;;5064180;28;20803;-76
2022/10/16 08:55:35;;;;;;;4.70;2.83;;;22.30;99.90;;;;;;5068824;28;20524;-74
2022/10/16 08:58:02;;;;;;;4.90;2.57;;;21.80;99.90;;;;;;5065203;28;20899;-76
2022/10/16 09:00:30;;;;;;;7.77;3.10;;;22.00;99.90;;;;;;5068195;28;20559;-74
2022/10/16 09:03:05;;;;;;;3.40;2.50;;;21.60;99.90;;;;;;5070590;28;20471;-75
2022/10/16 09:05:55;;;;;;;2.90;2.07;;;21.80;99.90;;;;;;5070734;28;20459;-77
2022/10/16 09:08:31;;;;;;;7.73;2.30;;;22.40;99.90;;;;;;5081808;28;20464;-77
2022/10/16 09:11:04;;;;;;;4.27;2.00;;;22.40;99.90;;;;;;5073436;28;20445;-75
2022/10/16 09:13:36;;;;;;;3.77;2.63;;;22.50;99.80;;;;;;5059641;28;20477;-77
2022/10/16 09:16:16;;;;;;;4.27;2.40;;;23.50;98.30;;;;;;5053974;28;20863;-76
2022/10/16 09:18:49;;;;;;;3.40;1.93;;;23.30;96.50;;;;;;5057099;28;20480;-77
2022/10/16 09:21:19;;;;;;;3.30;2.17;;;23.20;96.70;;;;;;5055120;28;21004;-77
2022/10/16 09:23:49;;;;;;;3.30;2.10;;;22.70;96.50;;;;;;5055741;28;20812;-75
2022/10/16 09:26:19;;;;;;;3.33;1.70;;;23.00;96.70;;;;;;5050677;28;20826;-74
2022/10/16 09:28:46;;;;;;;4.23;1.60;;;23.40;97.00;;;;;;5054973;28;20462;-75
2022/10/16 09:31:23;;;;;;;4.00;2.10;;;22.40;96.90;;;;;;5053335;28;20446;-76
2022/10/16 09:33:54;;;;;;;6.83;1.57;;;22.50;97.00;;;;;;5056878;28;20445;-75
2022/10/16 09:36:23;;;;;;;3.10;2.10;;;21.40;99.30;;;;;;5053785;28;20492;-74
2022/10/16 09:39:02;;;;;;;3.07;1.70;;;20.40;99.90;;;;;;5054340;28;20507;-76
2022/10/16 09:41:29;;;;;;;4.57;1.60;;;19.60;99.90;;;;;;5055249;28;20466;-76
2022/10/16 09:43:58;;;;;;;7.10;2.07;;;19.50;99.90;;;;;;5056063;28;20477;-74
2022/10/16 09:46:30;;;;;;;6.50;1.70;;;18.90;99.90;;;;;;5062227;28;20879;-74
2022/10/16 09:48:59;;;;;;;3.53;1.70;;;19.10;99.90;;;;;;5054791;28;20559;-76
2022/10/16 09:51:29;;;;;;;3.60;1.60;;;19.40;99.90;;;;;;5060542;28;21582;-75
2022/10/16 09:53:59;;;;;;;4.90;1.80;;;19.00;99.90;;;;;;5054783;28;20483;-76
2022/10/16 09:56:28;;;;;;;5.83;1.40;;;19.20;99.90;;;;;;5054000;28;20509;-76
2022/10/16 09:58:57;;;;;;;3.27;2.37;;;20.10;99.90;;;;;;5054761;28;20487;-74
2022/10/16 10:01:30;;;;;;;2.10;1.57;;;20.60;99.90;;;;;;5053803;28;20572;-75
2022/10/16 10:04:00;;;;;;;4.63;1.40;;;21.00;99.90;;;;;;5058740;28;20800;-77
2022/10/16 10:06:33;;;;;;;3.90;1.07;;;21.60;99.90;;;;;;5057039;28;20454;-79
2022/10/16 10:09:06;;;;;;;8.70;1.90;;;21.00;99.90;;;;;;5054547;28;20462;-76
2022/10/16 10:11:49;;;;;;;4.83;1.50;;;21.10;99.90;;;;;;5054393;28;20449;-75
2022/10/16 10:14:21;;;;;;;5.43;2.03;;;21.10;99.90;;;;;;5053542;28;20452;-75
2022/10/16 10:16:48;;;;;;;2.23;1.40;;;21.20;99.90;;;;;;5054653;28;20529;-76
2022/10/16 10:19:17;;;;;;;2.17;1.23;;;21.50;99.90;;;;;;5061240;28;20576;-77
2022/10/16 10:21:44;;;;;;;2.87;1.23;;;21.20;99.60;;;;;;5058349;28;20540;-77
2022/10/16 10:24:16;;;;;;;7.63;1.77;;;20.90;99.90;;;;;;5057848;28;20477;-75
2022/10/16 10:26:51;;;;;;;5.20;2.17;;;20.50;99.90;;;;;;5049049;28;20459;-77
2022/10/16 10:29:35;;;;;;;3.10;1.10;;;20.30;99.90;;;;;;5063767;28;20486;-76
2022/10/16 10:32:12;;;;;;;5.10;2.00;;;19.70;99.90;;;;;;5061234;28;20441;-75
2022/10/16 10:34:52;;;;;;;6.67;1.83;;;19.80;99.90;;;;;;5067589;28;20943;-75
2022/10/16 10:37:38;;;;;;;4.63;1.80;;;19.90;99.90;;;;;;5047804;28;20466;-76
2022/10/16 10:40:17;;;;;;;3.67;1.23;;;19.50;99.90;;;;;;5055078;28;20464;-77
2022/10/16 10:42:51;;;;;;;4.67;1.30;;;19.40;99.90;;;;;;5060509;28;20567;-75
2022/10/16 10:45:24;;;;;;;3.00;1.20;;;19.40;99.90;;;;;;5063764;28;20534;-78
2022/10/16 10:48:04;;;;;;;1.87;1.60;;;19.30;99.90;;;;;;5063700;28;20450;-75
2022/10/16 10:50:40;;;;;;;3.63;1.80;;;19.40;99.90;;;;;;5056317;28;20462;-75
2022/10/16 10:53:18;;;;;;;8.40;1.70;;;19.20;99.90;;;;;;5056952;28;20584;-77
2022/10/16 10:55:53;;;;;;;4.47;1.77;;;19.20;99.90;;;;;;5057416;28;20531;-74
2022/10/16 10:58:44;;;;;;;2.47;1.47;;;19.20;99.90;;;;;;5076224;28;20488;-74
2022/10/16 11:01:14;;;;;;;3.43;1.27;;;19.50;99.90;;;;;;5059358;28;20496;-74
2022/10/16 11:03:59;;;;;;;6.23;1.77;;;19.50;99.90;;;;;;5058834;28;20499;-75
2022/10/16 11:06:30;;;;;;;3.47;1.43;;;19.60;99.90;;;;;;5057898;28;20533;-76
2022/10/16 11:09:01;;;;;;;3.87;1.93;;;19.60;99.90;;;;;;5057188;28;20550;-77
2022/10/16 11:11:35;;;;;;;4.43;1.43;;;19.30;99.90;;;;;;5058118;28;20473;-76
2022/10/16 11:14:07;;;;;;;2.70;1.30;;;19.30;99.90;;;;;;5055763;28;20446;-76
2022/10/16 11:16:39;;;;;;;2.53;1.20;;;19.20;99.90;;;;;;5056771;28;20451;-74
2022/10/16 11:19:14;;;;;;;5.10;1.47;;;19.10;99.90;;;;;;5063939;28;20555;-74
2022/10/16 11:21:50;;;;;;;3.83;1.70;;;19.00;99.90;;;;;;5053238;28;20943;-78
2022/10/16 11:24:21;;;;;;;5.23;1.20;;;19.00;99.90;;;;;;5052353;28;20536;-77
2022/10/16 11:26:54;;;;;;;4.70;1.20;;;18.90;99.90;;;;;;5047976;28;20465;-76
2022/10/16 11:29:28;;;;;;;4.77;2.20;;;19.00;99.90;;;;;;5055989;28;20469;-73
2022/10/16 11:31:59;;;;;;;4.43;1.50;;;19.20;99.90;;;;;;5047495;28;20810;-77
2022/10/16 11:34:32;;;;;;;5.70;1.70;;;19.30;99.90;;;;;;5051772;28;20501;-78
2022/10/16 11:37:10;;;;;;;3.30;1.30;;;19.30;99.90;;;;;;5052742;28;20520;-76
2022/10/16 11:39:41;;;;;;;6.40;1.20;;;19.10;99.90;;;;;;5050857;28;20905;-77
2022/10/16 11:42:14;;;;;;;3.20;1.53;;;18.90;99.90;;;;;;5053244;28;20496;-75
2022/10/16 11:44:51;;;;;;;3.50;1.53;;;18.90;99.90;;;;;;5051676;28;20438;-78
2022/10/16 11:47:28;;;;;;;2.13;1.17;;;19.10;99.90;;;;;;5053571;28;21003;-75
2022/10/16 11:50:00;;;;;;;6.97;1.73;;;19.10;99.90;;;;;;5052381;28;20943;-76
2022/10/16 11:52:32;;;;;;;3.57;1.67;;;19.00;99.90;;;;;;5053414;28;20474;-77
2022/10/16 11:55:06;;;;;;;3.80;1.23;;;18.90;99.90;;;;;;5053369;28;20446;-78
2022/10/16 11:57:40;;;;;;;2.93;1.07;;;19.00;99.90;;;;;;5053324;28;21094;-77
2022/10/16 12:00:15;;;;;;;3.63;1.40;;;19.00;99.90;;;;;;5052917;28;20453;-74
2022/10/16 12:02:54;;;;;;;5.67;1.93;;;19.10;99.90;;;;;;5056513;28;20486;-73
2022/10/16 12:05:29;;;;;;;5.53;1.20;;;18.90;99.90;;;;;;5064720;28;20989;-77
2022/10/16 12:08:07;;;;;;;3.50;1.50;;;18.60;99.90;;;;;;5059524;28;20469;-75
2022/10/16 12:10:36;;;;;;;3.27;1.30;;;18.50;99.90;;;;;;5056296;28;20551;-76
2022/10/16 12:13:06;;;;;;;3.50;1.67;;;18.50;99.90;;;;;;5052315;28;20448;-77
2022/10/16 12:15:34;;;;;;;3.70;1.37;;;18.70;99.90;;;;;;5055214;28;20884;-74
2022/10/16 12:18:02;;;;;;;2.90;1.27;;;18.70;99.90;;;;;;5052371;28;20955;-79
2022/10/16 12:20:32;;;;;;;2.73;1.30;;;18.80;99.90;;;;;;5059400;28;20945;-75
2022/10/16 12:23:02;;;;;;;6.93;1.40;;;18.70;99.90;;;;;;5057543;28;20527;-77
2022/10/16 12:25:31;;;;;;;2.53;0.97;;;18.70;99.90;;;;;;5052608;28;20490;-74
2022/10/16 12:28:05;;;;;;;2.20;1.13;;;18.80;99.90;;;;;;5041862;28;20469;-78
2022/10/16 12:30:34;;;;;;;4.40;1.77;;;18.70;99.90;;;;;;5051929;28;20457;-77
2022/10/16 12:33:04;;;;;;;7.07;1.50;;;18.80;99.90;;;;;;5052928;28;20522;-78
2022/10/16 12:35:34;;;;;;;5.20;1.40;;;18.90;99.90;;;;;;5055252;28;20457;-74
2022/10/16 12:38:13;;;;;;;5.53;1.97;;;19.00;99.90;;;;;;5062603;28;20465;-73
2022/10/16 12:40:40;;;;;;;3.23;1.20;;;18.80;99.90;;;;;;5063051;28;20450;-75
2022/10/16 12:43:27;;;;;;;8.27;1.43;;;18.70;99.90;;;;;;5071918;28;20503;-73
2022/10/16 12:46:02;;;;;;;5.33;1.43;;;18.70;99.90;;;;;;5069553;28;20996;-74
2022/10/16 12:48:29;;;;;;;5.00;1.70;;;18.70;99.90;;;;;;5063815;28;20449;-78
2022/10/16 12:50:56;;;;;;;6.63;1.40;;;18.70;99.90;;;;;;5074192;28;20801;-76
2022/10/16 12:53:26;;;;;;;6.70;1.10;;;18.70;99.90;;;;;;5063084;28;20882;-78
2022/10/16 12:56:04;;;;;;;5.70;1.37;;;18.60;99.80;;;;;;5055777;28;20442;-75
2022/10/16 12:58:57;;;;;;;3.87;1.33;;;18.60;99.40;;;;;;5055610;28;20557;-74